Time;durP1;ratioP1;P1;durP2;ratioP2;P2;SDS_P1;SDS_P2;PMS_P1;PMS_P2;Temp;Humidity;BMP_temperature;BMP_pressure;BME280_temperature;BME280_humidity;BME280_pressure;Samples;Min_cycle;Max_cycle;Signal;HPM_P1;HPM_P2
2021/03/28 04:02:55;;;;;;;9.65;4.47;;;3.60;99.90;;;;;;4868102;29;89217;-90
2021/03/28 04:05:29;;;;;;;6.38;3.97;;;3.60;99.90;;;;;;4870969;29;86990;-89
2021/03/28 04:08:19;;;;;;;6.70;4.47;;;3.70;99.90;;;;;;4853295;29;87028;-89
2021/03/28 04:11:13;;;;;;;5.75;3.63;;;3.70;99.90;;;;;;4868576;29;86900;-89
2021/03/28 04:14:11;;;;;;;4.35;3.42;;;3.70;99.90;;;;;;4852703;29;91425;-89
2021/03/28 04:17:03;;;;;;;6.63;3.90;;;3.60;99.90;;;;;;4868508;29;87401;-88
2021/03/28 04:19:38;;;;;;;5.93;3.85;;;3.50;99.90;;;;;;4855599;29;86119;-89
2021/03/28 04:22:34;;;;;;;5.53;3.42;;;3.50;99.90;;;;;;4870191;29;86969;-89
2021/03/28 04:25:10;;;;;;;4.82;3.15;;;3.40;99.90;;;;;;4851133;29;91140;-89
2021/03/28 04:27:50;;;;;;;4.53;2.75;;;3.30;99.90;;;;;;4868027;29;87952;-89
2021/03/28 04:30:50;;;;;;;6.65;3.13;;;3.30;99.90;;;;;;4869082;29;86546;-90
2021/03/28 04:33:45;;;;;;;4.75;3.50;;;3.30;99.90;;;;;;4867203;29;86914;-89
2021/03/28 04:36:30;;;;;;;3.72;2.80;;;3.20;99.90;;;;;;4851622;29;90842;-88
2021/03/28 04:38:55;;;;;;;7.35;2.80;;;3.20;99.90;;;;;;4851907;29;90814;-89
2021/03/28 04:41:53;;;;;;;4.93;3.40;;;3.20;99.90;;;;;;4850376;29;86954;-89
2021/03/28 04:44:46;;;;;;;4.15;3.03;;;3.20;99.90;;;;;;4853218;29;86702;-89
2021/03/28 04:47:55;;;;;;;5.45;3.67;;;3.10;99.90;;;;;;4870319;28;86797;-89
2021/03/28 04:51:05;;;;;;;8.27;3.88;;;3.10;99.90;;;;;;4852546;29;90003;-89
2021/03/28 04:53:49;;;;;;;5.63;3.40;;;3.00;99.90;;;;;;4803089;29;86623;-89
2021/03/28 04:56:17;;;;;;;5.97;3.40;;;3.10;99.90;;;;;;4868523;29;87802;-89
2021/03/28 04:58:49;;;;;;;6.32;3.80;;;3.00;99.90;;;;;;4841771;29;91926;-89
2021/03/28 05:01:36;;;;;;;6.32;3.40;;;3.00;99.90;;;;;;4848357;29;87285;-89
2021/03/28 05:04:21;;;;;;;6.32;3.88;;;3.00;99.90;;;;;;4838374;29;87156;-89
2021/03/28 05:07:14;;;;;;;6.07;3.40;;;3.00;99.90;;;;;;4851258;29;86976;-88
2021/03/28 05:09:40;;;;;;;4.82;3.78;;;3.00;99.90;;;;;;4862292;29;87791;-90
2021/03/28 05:12:33;;;;;;;8.02;3.55;;;2.90;99.90;;;;;;4868380;29;86600;-89
2021/03/28 05:15:44;;;;;;;7.20;3.85;;;2.90;99.90;;;;;;4851284;29;85659;-88
2021/03/28 05:18:37;;;;;;;7.82;4.18;;;2.90;99.90;;;;;;4813473;29;87099;-89
2021/03/28 05:21:37;;;;;;;6.63;3.50;;;2.90;99.90;;;;;;4867682;29;87632;-89
2021/03/28 05:24:18;;;;;;;5.65;3.45;;;2.90;99.90;;;;;;4849596;29;92014;-89
2021/03/28 05:26:56;;;;;;;4.43;3.60;;;2.90;99.90;;;;;;4860289;29;86940;-89
2021/03/28 05:29:40;;;;;;;5.07;4.57;;;2.90;99.90;;;;;;4852338;29;87133;-89
2021/03/28 05:32:33;;;;;;;6.40;4.00;;;3.00;99.90;;;;;;4866234;28;88728;-89
2021/03/28 05:35:32;;;;;;;5.47;3.70;;;3.00;99.90;;;;;;4857618;29;87041;-88
2021/03/28 05:38:26;;;;;;;3.55;3.22;;;3.10;99.90;;;;;;4864831;29;87035;-88
2021/03/28 05:41:18;;;;;;;4.78;3.30;;;3.20;99.90;;;;;;4865806;29;87014;-89
2021/03/28 05:44:16;;;;;;;4.82;3.78;;;3.20;99.90;;;;;;4866910;29;86235;-89
2021/03/28 05:46:55;;;;;;;5.20;4.10;;;3.30;99.90;;;;;;4857633;29;86700;-88
2021/03/28 05:49:53;;;;;;;6.28;3.50;;;3.40;99.90;;;;;;4867104;29;86604;-89
2021/03/28 05:52:41;;;;;;;4.35;3.90;;;3.60;99.90;;;;;;4845575;29;88268;-88
2021/03/28 05:55:21;;;;;;;7.72;4.43;;;3.70;99.90;;;;;;4860203;29;87745;-89
2021/03/28 05:58:04;;;;;;;5.53;4.53;;;3.80;99.90;;;;;;4850011;29;91273;-89
2021/03/28 06:00:30;;;;;;;5.50;4.50;;;;;;;;;;4866364;28;86906;-89
2021/03/28 06:03:07;;;;;;;5.95;4.20;;;4.10;99.90;;;;;;4867074;29;86824;-89
2021/03/28 06:06:10;;;;;;;5.57;4.22;;;4.20;99.90;;;;;;4866867;28;86874;-92
2021/03/28 06:08:39;;;;;;;4.40;3.63;;;4.60;99.90;;;;;;4843057;29;90502;-89
2021/03/28 06:11:34;;;;;;;4.70;3.35;;;5.80;99.90;;;;;;4850598;29;86288;-89
2021/03/28 06:14:41;;;;;;;4.13;3.78;;;7.10;99.90;;;;;;4867608;29;86980;-89
2021/03/28 06:17:22;;;;;;;4.45;3.70;;;7.90;97.60;;;;;;4866974;28;91469;-90
2021/03/28 06:20:15;;;;;;;3.92;3.50;;;8.00;96.40;;;;;;4865637;29;90584;-90
2021/03/28 06:23:19;;;;;;;4.25;3.72;;;7.50;95.80;;;;;;4882313;28;86246;-88
2021/03/28 06:26:16;;;;;;;3.08;2.88;;;7.50;95.40;;;;;;4886543;28;86369;-87
2021/03/28 06:28:48;;;;;;;4.03;2.95;;;7.70;95.50;;;;;;4866821;29;90184;-89
2021/03/28 06:31:52;;;;;;;3.78;3.42;;;8.90;94.60;;;;;;4881663;28;87312;-88
2021/03/28 06:35:02;;;;;;;4.60;3.17;;;10.50;90.40;;;;;;4850477;29;87165;-87
2021/03/28 06:37:59;;;;;;;3.15;2.75;;;11.50;78.10;;;;;;4861776;28;87024;-88
2021/03/28 06:40:52;;;;;;;3.10;2.80;;;13.10;71.90;;;;;;4854157;29;87818;-87
2021/03/28 06:43:45;;;;;;;3.75;3.10;;;14.00;64.20;;;;;;4864330;29;86987;-90
2021/03/28 06:46:31;;;;;;;3.30;3.00;;;15.10;60.00;;;;;;4862476;29;87090;-90
2021/03/28 06:49:20;;;;;;;3.25;2.95;;;15.70;58.40;;;;;;4865684;29;87870;-90
2021/03/28 06:52:14;;;;;;;3.80;3.42;;;16.10;54.40;;;;;;4835773;29;90486;-89
2021/03/28 06:55:02;;;;;;;2.83;2.63;;;16.20;51.00;;;;;;4872104;29;87130;-89
2021/03/28 06:58:05;;;;;;;3.08;2.88;;;16.60;49.60;;;;;;4866786;29;86946;-88
2021/03/28 07:00:56;;;;;;;2.85;2.50;;;17.10;49.20;;;;;;4867066;29;86921;-89
2021/03/28 07:03:40;;;;;;;3.08;2.70;;;17.30;47.10;;;;;;4861602;29;87714;-89
2021/03/28 07:06:37;;;;;;;3.63;3.13;;;17.00;47.80;;;;;;4869031;29;87188;-88
2021/03/28 07:09:21;;;;;;;4.45;2.97;;;16.30;50.20;;;;;;4859878;28;86232;-88
2021/03/28 07:12:25;;;;;;;6.72;3.83;;;16.40;51.10;;;;;;4852648;29;86833;-88
2021/03/28 07:15:19;;;;;;;4.15;3.65;;;16.70;50.60;;;;;;4867665;29;87149;-88
2021/03/28 07:18:15;;;;;;;5.53;3.90;;;17.80;48.00;;;;;;4867429;29;88249;-86
2021/03/28 07:21:01;;;;;;;7.30;4.25;;;18.00;46.90;;;;;;4869409;28;87070;-89
2021/03/28 07:23:35;;;;;;;4.35;3.95;;;18.20;46.40;;;;;;4866448;28;88635;-87
2021/03/28 07:26:12;;;;;;;5.47;4.40;;;18.80;46.80;;;;;;4861663;29;87938;-89
2021/03/28 07:29:03;;;;;;;6.18;4.45;;;19.00;45.70;;;;;;4851680;29;87620;-88
2021/03/28 07:32:08;;;;;;;4.30;3.90;;;19.20;43.80;;;;;;4870339;29;86814;-87
2021/03/28 07:34:37;;;;;;;4.35;3.97;;;19.80;42.30;;;;;;4870427;28;86928;-86
2021/03/28 07:37:40;;;;;;;7.25;4.05;;;19.60;41.80;;;;;;4868856;29;87226;-88
2021/03/28 07:40:21;;;;;;;4.07;3.75;;;19.80;41.80;;;;;;4853028;29;90032;-88
2021/03/28 07:43:05;;;;;;;;;;;20.30;40.90;;;;;;4856751;29;86989;-90
2021/03/28 07:45:57;;;;;;;5.22;4.20;;;19.70;42.90;;;;;;4872250;29;87417;-90
2021/03/28 07:49:07;;;;;;;4.90;3.78;;;19.80;41.70;;;;;;4829052;29;87785;-91
2021/03/28 07:51:41;;;;;;;5.63;4.10;;;20.40;42.30;;;;;;4870097;29;87474;-91
2021/03/28 07:54:12;;;;;;;3.53;3.20;;;19.70;42.30;;;;;;4856633;29;87064;-91
2021/03/28 07:57:07;;;;;;;4.00;3.58;;;20.90;41.10;;;;;;4873475;29;86959;-90
2021/03/28 08:00:27;;;;;;;4.38;3.97;;;20.80;39.80;;;;;;4869731;29;87691;-89
2021/03/28 08:03:21;;;;;;;6.77;4.33;;;21.10;39.10;;;;;;4834736;29;89208;-91
2021/03/28 08:06:25;;;;;;;6.88;3.88;;;23.00;37.50;;;;;;4838156;29;86327;-88
2021/03/28 08:09:33;;;;;;;4.20;3.80;;;23.90;36.20;;;;;;4837210;29;87073;-92
2021/03/28 08:12:22;;;;;;;3.92;3.53;;;23.50;36.00;;;;;;4827004;29;87505;-88
2021/03/28 08:15:19;;;;;;;6.60;4.03;;;22.60;36.60;;;;;;4827417;29;87972;-87
2021/03/28 08:17:58;;;;;;;5.15;3.65;;;23.70;36.10;;;;;;4836507;29;86997;-88
2021/03/28 08:21:08;;;;;;;4.53;3.50;;;23.60;36.10;;;;;;4827139;29;87153;-88
2021/03/28 08:23:52;;;;;;;5.00;3.83;;;23.80;34.90;;;;;;4822829;29;88319;-88
2021/03/28 08:26:47;;;;;;;3.72;3.42;;;24.30;35.70;;;;;;4833315;29;86884;-87
2021/03/28 08:29:31;;;;;;;3.88;3.58;;;23.60;34.80;;;;;;4831306;29;87071;-87
2021/03/28 08:32:15;;;;;;;3.90;3.60;;;24.50;35.20;;;;;;4831489;29;87091;-86
2021/03/28 08:35:18;;;;;;;3.78;3.47;;;26.40;33.40;;;;;;4831094;29;86811;-92
2021/03/28 08:38:03;;;;;;;3.92;3.20;;;26.80;32.30;;;;;;4828256;29;86905;-93
2021/03/28 08:40:38;;;;;;;2.80;2.60;;;27.10;30.00;;;;;;4828678;29;86850;-88
2021/03/28 08:43:13;;;;;;;3.53;3.28;;;27.20;30.40;;;;;;4829843;29;87824;-91
2021/03/28 08:45:50;;;;;;;3.20;3.00;;;25.70;31.90;;;;;;4833058;29;87198;-86
2021/03/28 08:48:50;;;;;;;3.25;2.90;;;26.70;29.60;;;;;;4830956;29;88639;-88
2021/03/28 08:51:38;;;;;;;3.20;2.90;;;26.20;29.90;;;;;;4832230;29;86987;-87
2021/03/28 08:54:20;;;;;;;3.92;3.47;;;26.00;30.20;;;;;;4826470;29;87337;-89
2021/03/28 08:57:14;;;;;;;3.10;2.90;;;25.70;30.10;;;;;;4831342;29;87707;-89
2021/03/28 08:59:58;;;;;;;3.20;3.00;;;25.40;30.30;;;;;;4830870;29;88373;-88
2021/03/28 09:03:18;;;;;;;3.88;3.38;;;24.30;31.60;;;;;;4863230;29;86398;-88
2021/03/28 09:06:01;;;;;;;4.07;3.13;;;23.30;33.60;;;;;;4832141;29;86752;-89
2021/03/28 09:08:39;;;;;;;4.05;3.45;;;23.80;34.70;;;;;;4872326;28;88230;-88
2021/03/28 09:11:43;;;;;;;3.60;3.15;;;24.60;32.60;;;;;;4863792;29;87761;-89
2021/03/28 09:14:46;;;;;;;4.75;3.50;;;25.70;31.20;;;;;;4867485;29;86750;-89
2021/03/28 09:17:22;;;;;;;4.40;3.50;;;24.60;32.60;;;;;;4861991;29;86876;-88
2021/03/28 09:20:06;;;;;;;4.55;3.70;;;24.70;33.20;;;;;;4862747;29;87546;-88
2021/03/28 09:23:09;;;;;;;3.53;3.33;;;24.30;33.60;;;;;;4859741;29;87043;-88
2021/03/28 09:25:48;;;;;;;4.75;3.85;;;23.70;34.00;;;;;;4866083;29;87008;-87
2021/03/28 09:28:28;;;;;;;4.35;4.03;;;23.80;33.80;;;;;;4864499;29;86749;-88
2021/03/28 09:31:07;;;;;;;4.00;3.60;;;24.30;33.40;;;;;;4853977;29;88479;-87
2021/03/28 09:33:51;;;;;;;3.42;3.22;;;23.60;33.90;;;;;;4868348;29;86903;-88
2021/03/28 09:36:30;;;;;;;3.67;3.38;;;23.40;33.90;;;;;;4850419;29;86982;-88
2021/03/28 09:39:00;;;;;;;3.47;3.17;;;23.60;33.60;;;;;;4857856;29;87543;-88
2021/03/28 09:42:11;;;;;;;3.45;3.15;;;24.10;32.60;;;;;;4863052;29;87770;-88
2021/03/28 09:45:10;;;;;;;3.20;3.00;;;24.00;33.20;;;;;;4865850;29;87355;-88
2021/03/28 09:48:06;;;;;;;3.40;3.10;;;24.60;32.30;;;;;;4864635;29;87498;-87
2021/03/28 09:51:10;;;;;;;3.15;2.95;;;25.60;31.30;;;;;;4865858;29;86997;-88
2021/03/28 09:54:15;;;;;;;3.83;3.53;;;25.30;31.60;;;;;;4857422;29;87841;-89
2021/03/28 09:57:07;;;;;;;3.78;3.40;;;25.40;31.80;;;;;;4863047;29;87521;-88
2021/03/28 10:00:20;;;;;;;4.57;3.38;;;26.90;30.30;;;;;;4860814;29;86331;-88
2021/03/28 10:03:21;;;;;;;3.75;3.42;;;27.10;30.30;;;;;;4857978;29;86926;-89
2021/03/28 10:05:48;;;;;;;3.60;3.30;;;28.10;29.00;;;;;;4863010;29;87634;-89
2021/03/28 10:08:20;;;;;;;3.90;3.58;;;28.30;29.20;;;;;;4866679;29;87569;-89
2021/03/28 10:11:08;;;;;;;4.18;3.78;;;28.90;27.90;;;;;;4867307;29;86955;-88
2021/03/28 10:14:12;;;;;;;3.60;3.30;;;28.20;28.20;;;;;;4868308;28;87083;-89
2021/03/28 10:17:14;;;;;;;3.38;3.08;;;28.50;27.90;;;;;;4851572;29;88733;-88
2021/03/28 10:19:43;;;;;;;4.15;3.38;;;29.90;27.40;;;;;;4862047;28;86934;-90
2021/03/28 10:22:45;;;;;;;3.17;2.97;;;29.70;27.60;;;;;;4871838;28;86950;-90
2021/03/28 10:25:25;;;;;;;3.50;3.20;;;32.00;26.20;;;;;;4863489;29;86899;-90
2021/03/28 10:28:18;;;;;;;3.97;3.67;;;33.50;26.10;;;;;;4863407;29;86488;-90
2021/03/28 10:30:53;;;;;;;4.30;3.85;;;34.80;24.80;;;;;;4865715;29;87688;-91
2021/03/28 10:33:40;;;;;;;3.83;3.53;;;33.70;26.90;;;;;;4862006;29;87420;-90
2021/03/28 10:36:24;;;;;;;4.18;3.83;;;34.40;26.20;;;;;;4861718;29;87923;-91
2021/03/28 10:39:08;;;;;;;4.45;3.95;;;35.30;25.70;;;;;;4867214;29;88420;-91
2021/03/28 10:41:43;;;;;;;4.03;3.72;;;34.90;25.80;;;;;;4866421;29;86893;-90
2021/03/28 10:44:14;;;;;;;3.95;3.70;;;35.70;25.50;;;;;;4868780;29;87089;-90
2021/03/28 10:46:58;;;;;;;4.88;4.40;;;37.40;25.30;;;;;;4861424;29;86931;-90
2021/03/28 10:49:55;;;;;;;5.03;4.63;;;37.00;24.50;;;;;;4841708;29;89273;-91
2021/03/28 10:52:42;;;;;;;4.70;4.30;;;37.00;24.50;;;;;;4860528;29;88344;-90
2021/03/28 10:55:45;;;;;;;4.75;4.45;;;37.50;24.60;;;;;;4865877;29;86227;-90
2021/03/28 10:58:48;;;;;;;4.78;4.38;;;37.70;24.10;;;;;;4865260;29;87080;-89
2021/03/28 11:01:41;;;;;;;4.40;4.10;;;38.60;23.90;;;;;;4853890;28;87361;-90
2021/03/28 11:04:31;;;;;;;4.90;4.60;;;39.40;23.80;;;;;;4863524;29;88069;-88
2021/03/28 11:07:37;;;;;;;4.65;4.25;;;39.30;23.40;;;;;;4861115;29;87047;-89
2021/03/28 11:10:23;;;;;;;5.18;4.78;;;38.90;23.40;;;;;;4862925;29;87114;-88
2021/03/28 11:13:23;;;;;;;5.35;4.85;;;37.90;24.10;;;;;;4863210;29;87774;-89
2021/03/28 11:16:01;;;;;;;5.05;4.60;;;37.30;24.20;;;;;;4861728;29;87490;-89
2021/03/28 11:19:04;;;;;;;4.90;4.50;;;37.70;24.20;;;;;;4867048;29;86742;-89
2021/03/28 11:22:00;;;;;;;4.70;4.40;;;38.00;24.60;;;;;;4849274;29;87179;-89
2021/03/28 11:24:42;;;;;;;6.93;6.22;;;37.90;24.50;;;;;;4865883;28;86784;-91
2021/03/28 11:27:07;;;;;;;5.68;5.28;;;38.30;24.70;;;;;;4865460;29;86797;-90
2021/03/28 11:30:07;;;;;;;6.75;5.60;;;38.30;24.80;;;;;;4864260;29;87064;-91
2021/03/28 11:32:59;;;;;;;6.45;5.85;;;38.60;24.10;;;;;;4857737;29;87894;-90
2021/03/28 11:35:43;;;;;;;5.22;4.85;;;39.30;23.40;;;;;;4858294;29;88281;-90
2021/03/28 11:38:18;;;;;;;5.03;4.50;;;38.80;23.30;;;;;;4866444;28;87505;-91
2021/03/28 11:41:14;;;;;;;5.85;5.35;;;38.90;23.00;;;;;;4845081;29;86883;-91
2021/03/28 11:43:49;;;;;;;5.13;4.72;;;37.10;23.90;;;;;;4867113;29;87527;-90
2021/03/28 11:46:35;;;;;;;5.93;5.25;;;37.30;24.20;;;;;;4866780;29;88846;-91
2021/03/28 11:49:00;;;;;;;5.18;4.78;;;37.80;23.80;;;;;;4869888;29;88395;-91
2021/03/28 11:51:33;;;;;;;4.65;4.35;;;37.70;24.10;;;;;;4864873;29;86241;-91
2021/03/28 11:54:15;;;;;;;5.05;4.65;;;38.10;23.80;;;;;;4868213;29;87089;-91
2021/03/28 11:56:49;;;;;;;5.30;4.93;;;38.50;23.70;;;;;;4853321;29;88503;-91
2021/03/28 11:59:24;;;;;;;5.03;4.72;;;38.40;23.80;;;;;;4851218;29;90523;-91
2021/03/28 12:01:59;;;;;;;5.32;4.93;;;38.60;23.40;;;;;;4854312;29;86922;-91
2021/03/28 12:04:37;;;;;;;5.35;4.90;;;38.70;23.40;;;;;;4866261;28;87201;-90
2021/03/28 12:07:28;;;;;;;4.90;4.50;;;38.50;23.80;;;;;;4869429;28;87393;-90
2021/03/28 12:09:59;;;;;;;5.35;4.85;;;38.30;23.30;;;;;;4863442;29;87105;-90
2021/03/28 12:12:34;;;;;;;5.22;4.93;;;37.70;23.60;;;;;;4867357;29;86463;-91
2021/03/28 12:15:37;;;;;;;5.57;4.97;;;37.90;23.30;;;;;;4866559;29;86513;-91
2021/03/28 12:18:21;;;;;;;5.40;4.97;;;37.80;23.40;;;;;;4855167;29;88614;-90
2021/03/28 12:20:59;;;;;;;4.63;4.43;;;37.70;23.20;;;;;;4856365;29;86862;-90
2021/03/28 12:23:49;;;;;;;4.78;4.47;;;37.90;23.60;;;;;;4859834;29;87213;-92
2021/03/28 12:26:35;;;;;;;5.03;4.63;;;38.00;23.70;;;;;;4869611;29;87829;-91
2021/03/28 12:29:17;;;;;;;4.88;4.50;;;37.80;23.30;;;;;;4852021;29;89444;-91
2021/03/28 12:31:52;;;;;;;4.72;4.43;;;37.70;23.60;;;;;;4846190;29;87854;-90
2021/03/28 12:34:34;;;;;;;5.03;4.60;;;36.90;22.80;;;;;;4864200;29;87078;-91
2021/03/28 12:37:10;;;;;;;5.32;4.82;;;36.40;23.50;;;;;;4869243;29;87386;-91
2021/03/28 12:40:06;;;;;;;4.80;4.50;;;36.20;23.40;;;;;;4846620;29;91159;-90
2021/03/28 12:42:38;;;;;;;4.90;4.50;;;35.20;23.50;;;;;;4862262;29;87180;-91
2021/03/28 12:45:06;;;;;;;4.40;4.07;;;35.20;23.70;;;;;;4868189;29;86478;-90
2021/03/28 12:47:51;;;;;;;4.65;4.35;;;35.40;23.90;;;;;;4844064;29;87309;-91
2021/03/28 12:50:17;;;;;;;5.50;5.07;;;35.60;23.70;;;;;;4853644;29;88263;-90
2021/03/28 12:52:46;;;;;;;4.75;4.43;;;35.50;24.00;;;;;;4871468;29;87992;-90
2021/03/28 12:55:12;;;;;;;4.90;4.50;;;35.30;24.00;;;;;;4852290;29;87060;-90
2021/03/28 12:57:43;;;;;;;5.07;4.68;;;35.00;24.10;;;;;;4872067;29;87109;-90
2021/03/28 13:00:38;;;;;;;4.95;4.53;;;35.20;24.10;;;;;;4867288;29;87824;-90
2021/03/28 13:03:26;;;;;;;4.60;4.30;;;35.60;24.00;;;;;;4870377;29;87927;-89
2021/03/28 13:06:25;;;;;;;4.47;4.18;;;35.90;23.90;;;;;;4881068;29;86274;-89
2021/03/28 13:09:17;;;;;;;4.90;4.50;;;36.00;23.80;;;;;;4885194;29;86269;-89
2021/03/28 13:12:21;;;;;;;5.32;4.65;;;35.90;24.00;;;;;;4825336;29;86656;-89
2021/03/28 13:14:49;;;;;;;4.78;4.47;;;35.70;23.50;;;;;;4867618;29;87536;-89
2021/03/28 13:17:14;;;;;;;5.30;4.90;;;35.00;23.80;;;;;;4868745;28;86936;-89
2021/03/28 13:19:47;;;;;;;4.72;4.40;;;35.10;24.20;;;;;;4851935;29;87782;-89
2021/03/28 13:22:30;;;;;;;5.00;4.60;;;35.30;24.00;;;;;;4883080;29;86646;-90
2021/03/28 13:25:14;;;;;;;4.57;4.28;;;34.80;23.90;;;;;;4892766;28;88277;-90
2021/03/28 13:27:40;;;;;;;4.72;4.30;;;35.00;23.80;;;;;;4873885;29;86293;-90
2021/03/28 13:30:14;;;;;;;5.05;4.65;;;34.80;24.10;;;;;;4883608;29;86830;-90
2021/03/28 13:32:48;;;;;;;4.80;4.35;;;34.80;24.10;;;;;;4868419;29;89872;-90
2021/03/28 13:35:34;;;;;;;4.95;4.55;;;34.70;24.10;;;;;;4889724;29;90066;-90
2021/03/28 13:38:15;;;;;;;4.85;4.45;;;34.70;24.40;;;;;;4870176;29;86150;-91
2021/03/28 13:41:05;;;;;;;5.30;4.80;;;34.30;24.20;;;;;;4885726;29;86590;-90
2021/03/28 13:43:39;;;;;;;4.90;4.50;;;34.40;24.80;;;;;;4882211;29;87490;-88
2021/03/28 13:46:19;;;;;;;4.43;4.03;;;34.10;24.60;;;;;;4867704;29;87780;-89
2021/03/28 13:49:01;;;;;;;4.95;4.55;;;34.10;24.70;;;;;;4858140;29;87102;-88
2021/03/28 13:51:28;;;;;;;5.35;4.55;;;33.90;24.80;;;;;;4866276;29;86913;-88
2021/03/28 13:53:53;;;;;;;4.50;4.10;;;33.80;24.60;;;;;;4866616;29;87615;-88
2021/03/28 13:56:35;;;;;;;5.05;4.65;;;33.70;24.50;;;;;;4866686;29;87594;-88
2021/03/28 13:59:10;;;;;;;5.25;4.75;;;33.60;24.50;;;;;;4858215;29;86869;-88
2021/03/28 14:01:41;;;;;;;4.82;4.43;;;33.40;24.60;;;;;;4863766;28;87130;-88
2021/03/28 14:04:50;;;;;;;4.85;4.43;;;33.20;24.70;;;;;;4865647;29;87418;-89
2021/03/28 14:07:20;;;;;;;5.23;4.83;;;32.90;24.80;;;;;;4832983;29;87013;-88
2021/03/28 14:10:06;;;;;;;;;;;32.40;25.10;;;;;;4858423;29;87036;-88
2021/03/28 14:12:37;;;;;;;6.15;4.85;;;32.10;25.30;;;;;;4861336;29;87889;-86
2021/03/28 14:15:15;;;;;;;4.88;4.25;;;31.80;25.20;;;;;;4858711;29;90040;-89
2021/03/28 14:17:49;;;;;;;4.60;4.30;;;31.70;25.30;;;;;;4859104;29;87590;-88
2021/03/28 14:20:20;;;;;;;5.43;4.53;;;31.50;25.50;;;;;;4840149;29;87040;-89
2021/03/28 14:22:50;;;;;;;4.50;4.10;;;31.40;25.50;;;;;;4866884;29;87004;-89
2021/03/28 14:25:40;;;;;;;5.20;4.60;;;31.20;25.40;;;;;;4852189;29;90031;-90
2021/03/28 14:28:28;;;;;;;4.75;4.35;;;30.90;25.60;;;;;;4860155;29;87029;-90
2021/03/28 14:31:11;;;;;;;4.80;4.40;;;30.70;25.90;;;;;;4860226;29;87125;-90
2021/03/28 14:34:12;;;;;;;4.60;4.30;;;30.40;25.80;;;;;;4863781;29;86926;-89
2021/03/28 14:36:40;;;;;;;4.75;4.35;;;30.10;26.10;;;;;;4860555;29;87726;-89
2021/03/28 14:39:27;;;;;;;4.43;4.05;;;29.70;26.20;;;;;;4863998;29;87860;-89
2021/03/28 14:42:10;;;;;;;4.78;4.38;;;29.60;26.40;;;;;;4862644;29;87150;-89
2021/03/28 14:44:43;;;;;;;5.53;4.60;;;29.40;26.50;;;;;;4862069;28;87040;-89
2021/03/28 14:47:37;;;;;;;4.80;4.43;;;29.10;26.60;;;;;;4860766;29;87133;-90
2021/03/28 14:50:02;;;;;;;4.20;3.90;;;29.00;26.90;;;;;;4823687;29;87124;-89
2021/03/28 14:52:37;;;;;;;5.25;4.60;;;28.80;27.10;;;;;;4847247;29;87138;-89
2021/03/28 14:55:06;;;;;;;4.00;3.70;;;28.70;27.10;;;;;;4857714;28;86869;-90
2021/03/28 14:57:44;;;;;;;4.47;4.07;;;28.50;26.90;;;;;;4857676;29;88738;-89
2021/03/28 15:00:29;;;;;;;4.70;4.20;;;28.20;26.80;;;;;;4860677;29;87015;-89
2021/03/28 15:03:22;;;;;;;4.60;4.20;;;28.20;27.30;;;;;;4859945;29;86478;-90
2021/03/28 15:06:08;;;;;;;4.88;4.47;;;27.90;27.50;;;;;;4854796;29;87960;-90
2021/03/28 15:09:15;;;;;;;4.80;4.40;;;27.50;27.90;;;;;;4858007;29;88749;-90
2021/03/28 15:11:52;;;;;;;4.32;4.00;;;27.10;28.00;;;;;;4781596;29;87173;-90
2021/03/28 15:14:37;;;;;;;4.35;4.05;;;26.70;27.80;;;;;;4853947;29;87128;-90
2021/03/28 15:17:25;;;;;;;4.03;3.63;;;26.50;27.90;;;;;;4862747;29;87009;-90
2021/03/28 15:20:21;;;;;;;4.78;4.32;;;26.30;28.30;;;;;;4862490;29;88733;-89
2021/03/28 15:22:53;;;;;;;5.22;4.30;;;25.90;28.90;;;;;;4858064;28;87304;-89
2021/03/28 15:25:23;;;;;;;5.05;4.53;;;25.40;28.80;;;;;;4877357;28;85680;-91
2021/03/28 15:27:56;;;;;;;6.50;4.10;;;25.00;29.30;;;;;;4883129;28;87837;-90
2021/03/28 15:30:35;;;;;;;4.85;4.03;;;24.80;29.50;;;;;;4890050;28;88592;-89
2021/03/28 15:33:22;;;;;;;4.90;4.43;;;24.60;29.50;;;;;;4887115;29;88558;-91
2021/03/28 15:35:54;;;;;;;4.15;3.75;;;24.20;30.10;;;;;;4873465;28;86688;-90
2021/03/28 15:38:49;;;;;;;4.43;3.80;;;23.80;30.00;;;;;;4889839;28;86858;-91
2021/03/28 15:41:36;;;;;;;5.05;4.07;;;23.60;30.70;;;;;;4881784;29;87721;-90
2021/03/28 15:44:39;;;;;;;5.10;3.90;;;23.40;30.80;;;;;;4864166;29;87592;-89
2021/03/28 15:47:41;;;;;;;4.45;4.05;;;23.10;31.60;;;;;;4848818;29;87113;-89
2021/03/28 15:50:15;;;;;;;4.50;4.10;;;22.80;31.20;;;;;;4865459;29;87013;-89
2021/03/28 15:52:54;;;;;;;5.57;3.70;;;22.40;30.70;;;;;;4861921;29;87516;-89
2021/03/28 15:55:37;;;;;;;4.13;3.78;;;21.80;32.20;;;;;;4858251;29;87457;-89
2021/03/28 15:58:40;;;;;;;4.43;4.03;;;21.70;32.50;;;;;;4851688;29;86879;-89
2021/03/28 16:01:27;;;;;;;4.43;3.83;;;21.60;32.90;;;;;;4867719;28;88207;-90
2021/03/28 16:04:25;;;;;;;3.83;3.53;;;21.50;32.60;;;;;;4859624;29;87705;-89
2021/03/28 16:07:12;;;;;;;3.72;3.42;;;21.40;32.50;;;;;;4830026;29;87362;-89
2021/03/28 16:09:56;;;;;;;4.28;3.88;;;21.20;32.90;;;;;;4857244;29;87189;-89
2021/03/28 16:12:33;;;;;;;4.15;3.85;;;20.90;33.20;;;;;;4866807;28;86957;-89
2021/03/28 16:15:18;;;;;;;3.75;3.45;;;20.70;33.60;;;;;;4858528;29;87764;-89
2021/03/28 16:18:08;;;;;;;4.10;3.70;;;20.50;33.80;;;;;;4839227;29;90707;-89
2021/03/28 16:21:14;;;;;;;3.90;3.50;;;20.20;34.20;;;;;;4863659;29;86194;-89
2021/03/28 16:23:52;;;;;;;3.53;3.22;;;19.80;34.60;;;;;;4863967;29;86936;-90
2021/03/28 16:26:34;;;;;;;4.72;3.45;;;19.50;35.20;;;;;;4868074;29;88833;-89
2021/03/28 16:29:09;;;;;;;5.90;3.50;;;19.40;35.40;;;;;;4855364;29;88152;-90
2021/03/28 16:31:51;;;;;;;3.97;3.67;;;19.10;35.20;;;;;;4858402;28;86993;-89
2021/03/28 16:34:48;;;;;;;5.10;3.80;;;19.00;36.60;;;;;;4867094;29;86967;-90
2021/03/28 16:37:35;;;;;;;4.03;3.63;;;18.90;37.10;;;;;;4850467;29;88460;-90
2021/03/28 16:40:29;;;;;;;6.35;3.80;;;18.70;37.70;;;;;;4866291;29;86995;-94
2021/03/28 16:43:29;;;;;;;4.63;4.20;;;18.40;37.30;;;;;;4860205;29;86928;-90
2021/03/28 16:46:27;;;;;;;6.07;3.75;;;18.20;38.50;;;;;;4813719;29;87334;-89
2021/03/28 16:49:06;;;;;;;4.22;3.80;;;17.90;39.20;;;;;;4856449;29;87104;-90
2021/03/28 16:51:39;;;;;;;6.13;3.63;;;17.70;39.50;;;;;;4866515;29;86943;-89
2021/03/28 16:54:24;;;;;;;4.47;3.50;;;17.40;40.10;;;;;;4869032;29;87003;-89
2021/03/28 16:57:01;;;;;;;6.70;3.60;;;17.30;41.40;;;;;;4867832;29;87734;-89
2021/03/28 16:59:34;;;;;;;3.65;3.33;;;17.00;41.30;;;;;;4867136;29;87754;-92
2021/03/28 17:02:03;;;;;;;4.18;3.53;;;16.90;41.30;;;;;;4848499;29;88860;-92
2021/03/28 17:04:34;;;;;;;5.35;3.97;;;16.80;41.20;;;;;;4868757;29;87029;-90
2021/03/28 17:07:08;;;;;;;5.18;3.25;;;16.60;41.70;;;;;;4848349;29;87157;-90
2021/03/28 17:09:48;;;;;;;3.53;3.22;;;16.40;41.70;;;;;;4848638;29;89251;-92
2021/03/28 17:12:16;;;;;;;3.83;3.42;;;16.20;42.00;;;;;;4866714;29;90239;-90
2021/03/28 17:14:42;;;;;;;6.25;3.60;;;16.10;42.30;;;;;;4856010;28;86175;-90
2021/03/28 17:17:11;;;;;;;4.20;3.80;;;16.00;42.90;;;;;;4834971;29;86836;-90
2021/03/28 17:19:40;;;;;;;4.60;3.80;;;15.80;43.00;;;;;;4859052;29;89257;-90
2021/03/28 17:22:42;;;;;;;4.25;3.72;;;15.60;43.30;;;;;;4852467;29;89698;-89
2021/03/28 17:25:41;;;;;;;5.13;4.20;;;15.50;45.20;;;;;;4848377;29;87051;-90
2021/03/28 17:28:13;;;;;;;5.13;4.28;;;15.30;45.30;;;;;;4859653;29;86688;-90
2021/03/28 17:31:04;;;;;;;5.03;4.13;;;15.00;44.70;;;;;;4865614;29;88399;-90
2021/03/28 17:33:38;;;;;;;10.50;4.30;;;14.90;45.50;;;;;;4856935;29;86987;-89
2021/03/28 17:36:18;;;;;;;5.68;4.47;;;14.70;46.00;;;;;;4850772;29;86995;-89
2021/03/28 17:38:53;;;;;;;7.03;4.70;;;14.50;46.60;;;;;;4867634;29;87029;-89
2021/03/28 17:41:49;;;;;;;5.68;4.82;;;14.40;46.70;;;;;;4851722;29;87608;-89
2021/03/28 17:44:38;;;;;;;6.13;4.63;;;14.20;47.90;;;;;;4866077;29;86959;-90
2021/03/28 17:47:14;;;;;;;7.88;4.40;;;14.00;48.70;;;;;;4837903;29;86817;-91
2021/03/28 17:49:43;;;;;;;6.72;5.05;;;13.80;50.30;;;;;;4837182;29;87875;-90
2021/03/28 17:52:12;;;;;;;9.18;5.18;;;13.50;50.70;;;;;;4858971;29;87794;-90
2021/03/28 17:54:46;;;;;;;5.78;5.15;;;13.30;51.50;;;;;;4853842;29;87438;-88
2021/03/28 17:57:32;;;;;;;7.13;5.40;;;13.20;52.50;;;;;;4848529;29;86885;-91
2021/03/28 18:02:40;;;;;;;6.47;4.68;;;12.90;53.00;;;;;;5185992;23;86777;-91
2021/03/28 18:05:12;;;;;;;8.68;5.82;;;12.80;53.40;;;;;;4850377;29;86898;-90
2021/03/28 18:15:07;;;;;;;6.73;5.07;;;12.40;55.90;;;;;;4827587;29;86949;-91
2021/03/28 18:21:34;;;;;;;5.70;4.90;;;12.10;58.30;;;;;;4830186;29;86964;-91
2021/03/28 18:27:26;;;;;;;9.50;5.18;;;11.70;62.70;;;;;;4827531;29;87256;-90
2021/03/28 18:33:05;;;;;;;12.20;5.75;;;11.40;63.90;;;;;;4829739;29;86766;-90
2021/03/28 18:35:31;;;;;;;7.43;5.20;;;11.30;65.00;;;;;;4837258;29;86840;-89
2021/03/28 18:38:04;;;;;;;7.07;5.72;;;11.20;65.10;;;;;;4855838;29;86932;-89
2021/03/28 18:40:41;;;;;;;8.65;6.05;;;11.10;65.70;;;;;;4872418;29;86652;-90
2021/03/28 18:43:07;;;;;;;8.30;6.32;;;11.00;67.30;;;;;;4856009;29;86124;-90
2021/03/28 18:45:39;;;;;;;7.75;6.20;;;10.90;67.00;;;;;;4855595;29;87759;-89